Time;durP1;ratioP1;P1;durP2;ratioP2;P2;SDS_P1;SDS_P2;PMS_P1;PMS_P2;Temp;Humidity;BMP_temperature;BMP_pressure;BME280_temperature;BME280_humidity;BME280_pressure;Samples;Min_cycle;Max_cycle;Signal;HPM_P1;HPM_P2
2022/12/18 00:01:07;;;;;;;0.10;0.10;;;-5.20;99.90;;;;;;5071147;28;20189;-79
2022/12/18 00:03:33;;;;;;;0.10;0.10;;;-5.20;99.90;;;;;;5071341;28;20253;-79
2022/12/18 00:06:00;;;;;;;0.10;0.10;;;-5.10;99.90;;;;;;5070386;28;20857;-79
2022/12/18 00:08:27;;;;;;;0.10;0.10;;;-5.40;99.90;;;;;;5069895;28;20287;-79
2022/12/18 00:10:53;;;;;;;2.37;2.20;;;-5.30;99.90;;;;;;5053941;28;20310;-79
2022/12/18 00:13:18;;;;;;;0.10;0.10;;;-5.40;99.90;;;;;;5054528;28;20232;-80
2022/12/18 00:15:44;;;;;;;0.10;0.10;;;-5.50;99.90;;;;;;5069850;28;20204;-79
2022/12/18 00:18:09;;;;;;;0.10;0.10;;;-5.80;99.90;;;;;;5069100;28;20203;-79
2022/12/18 00:20:39;;;;;;;0.10;0.10;;;-5.90;99.90;;;;;;5065539;28;20206;-79
2022/12/18 00:23:06;;;;;;;0.10;0.10;;;-5.80;99.90;;;;;;5053213;28;20218;-79
2022/12/18 00:25:36;;;;;;;0.10;0.10;;;-5.60;99.90;;;;;;5055624;28;20276;-78
2022/12/18 00:28:03;;;;;;;0.10;0.10;;;-5.80;99.90;;;;;;5068075;28;20276;-79
2022/12/18 00:30:29;;;;;;;0.10;0.10;;;-6.10;99.90;;;;;;5055174;28;20211;-79
2022/12/18 00:32:55;;;;;;;0.10;0.10;;;-6.30;99.90;;;;;;5049931;28;20279;-80
2022/12/18 00:35:21;;;;;;;0.10;0.10;;;-6.40;99.90;;;;;;5052327;28;20196;-79
2022/12/18 00:37:47;;;;;;;0.10;0.10;;;-6.50;99.90;;;;;;5050508;28;20195;-79
2022/12/18 00:40:12;;;;;;;0.10;0.10;;;-6.40;99.90;;;;;;5069202;28;20194;-78
2022/12/18 00:42:56;;;;;;;0.10;0.10;;;-6.50;99.90;;;;;;5067732;28;20320;-80
2022/12/18 00:45:30;;;;;;;0.10;0.10;;;-6.40;99.90;;;;;;5051785;28;20184;-79
2022/12/18 00:47:56;;;;;;;0.10;0.10;;;-6.30;99.90;;;;;;5053302;28;20191;-79
2022/12/18 00:50:23;;;;;;;0.10;0.10;;;-6.20;99.90;;;;;;5052168;28;21040;-79
2022/12/18 00:52:49;;;;;;;0.10;0.10;;;-6.00;99.90;;;;;;5069012;28;20660;-80
2022/12/18 00:55:15;;;;;;;0.10;0.10;;;-6.00;99.90;;;;;;5052444;28;20197;-80
2022/12/18 00:57:41;;;;;;;0.10;0.10;;;-5.90;99.90;;;;;;5052086;28;20669;-79
2022/12/18 01:00:11;;;;;;;0.10;0.10;;;-5.90;99.90;;;;;;5052691;28;20305;-79
2022/12/18 01:02:36;;;;;;;0.10;0.10;;;-5.90;99.90;;;;;;5066858;28;20182;-80
2022/12/18 01:05:02;;;;;;;0.10;0.10;;;-5.90;99.90;;;;;;5067783;28;20269;-79
2022/12/18 01:07:28;;;;;;;0.10;0.10;;;-5.80;99.90;;;;;;5069475;28;20183;-79
2022/12/18 01:09:53;;;;;;;0.10;0.10;;;-6.00;99.90;;;;;;5066749;28;20857;-79
2022/12/18 01:12:19;;;;;;;0.10;0.10;;;-6.10;99.90;;;;;;5068928;28;21224;-80
2022/12/18 01:14:44;;;;;;;0.10;0.10;;;-6.00;99.90;;;;;;5066846;28;20191;-79
2022/12/18 01:17:10;;;;;;;0.10;0.10;;;-6.00;99.90;;;;;;5069574;28;20195;-79
2022/12/18 01:19:35;;;;;;;0.10;0.10;;;-5.90;99.90;;;;;;5051378;28;20212;-80
2022/12/18 01:22:01;;;;;;;0.10;0.10;;;-6.00;99.90;;;;;;5052806;28;20200;-80
2022/12/18 01:24:26;;;;;;;0.10;0.10;;;-6.00;99.90;;;;;;5068671;28;20983;-80
2022/12/18 01:26:52;;;;;;;0.10;0.10;;;-6.10;99.90;;;;;;5066283;28;21119;-80
2022/12/18 01:29:17;;;;;;;0.10;0.10;;;-6.20;99.90;;;;;;5067329;28;20680;-79
2022/12/18 01:31:43;;;;;;;0.10;0.10;;;-6.20;99.90;;;;;;5069865;28;20782;-80
2022/12/18 01:34:09;;;;;;;0.10;0.10;;;-6.10;99.90;;;;;;5056948;28;20615;-79
2022/12/18 01:36:37;;;;;;;0.10;0.10;;;-6.10;99.90;;;;;;5072927;28;20187;-80
2022/12/18 01:39:09;;;;;;;0.10;0.10;;;-6.00;99.90;;;;;;5056987;28;20689;-80
2022/12/18 01:44:57;;;;;;;0.10;0.10;;;-6.00;99.90;;;;;;5058124;28;20214;-80
2022/12/18 01:47:43;;;;;;;0.10;0.10;;;-6.00;99.90;;;;;;5072394;28;20184;-80
2022/12/18 01:50:14;;;;;;;0.10;0.10;;;-6.00;99.90;;;;;;5068315;28;20301;-79
2022/12/18 01:52:42;;;;;;;0.10;0.10;;;-6.10;99.90;;;;;;5070446;28;20605;-79
2022/12/18 01:55:10;;;;;;;0.10;0.10;;;-6.10;99.90;;;;;;5056111;28;20217;-79
2022/12/18 01:57:37;;;;;;;0.10;0.10;;;-6.20;99.90;;;;;;5071363;28;20259;-82
2022/12/18 02:00:14;;;;;;;0.10;0.10;;;-6.20;99.90;;;;;;5070778;28;20204;-79
2022/12/18 02:02:41;;;;;;;0.10;0.10;;;-6.30;99.90;;;;;;5071482;28;20179;-79
2022/12/18 02:05:08;;;;;;;0.10;0.10;;;-6.30;99.90;;;;;;5071965;28;20201;-80
2022/12/18 02:07:33;;;;;;;0.10;0.10;;;-6.40;99.90;;;;;;5071866;28;20182;-79
2022/12/18 02:10:12;;;;;;;0.10;0.10;;;-6.30;99.90;;;;;;5070803;28;20260;-79
2022/12/18 02:12:43;;;;;;;0.10;0.10;;;-6.30;99.90;;;;;;5056225;28;20182;-80
2022/12/18 02:15:32;;;;;;;0.10;0.10;;;-6.50;99.90;;;;;;5056324;28;21232;-79
2022/12/18 02:18:12;;;;;;;0.10;0.10;;;-6.60;99.90;;;;;;5056478;28;20542;-79
2022/12/18 02:20:47;;;;;;;0.10;0.10;;;-6.60;99.90;;;;;;5072195;28;20177;-80
2022/12/18 02:23:42;;;;;;;0.10;0.10;;;-6.70;99.90;;;;;;5069454;28;20196;-80
2022/12/18 02:26:29;;;;;;;0.10;0.10;;;-6.80;99.90;;;;;;5050645;28;20710;-79
2022/12/18 02:29:02;;;;;;;0.10;0.10;;;-6.90;99.90;;;;;;5051609;28;20210;-80
2022/12/18 02:31:34;;;;;;;0.10;0.10;;;-6.80;99.90;;;;;;5052252;28;20179;-80
2022/12/18 02:34:03;;;;;;;12.83;11.03;;;-6.90;99.90;;;;;;5070527;28;20241;-79
2022/12/18 02:36:31;;;;;;;0.10;0.10;;;-6.90;99.90;;;;;;5053645;28;20239;-80
2022/12/18 02:38:59;;;;;;;0.10;0.10;;;-7.00;99.90;;;;;;5068278;28;20240;-79
2022/12/18 02:41:25;;;;;;;0.10;0.10;;;-7.10;99.90;;;;;;5052095;28;20195;-80
2022/12/18 02:43:57;;;;;;;0.10;0.10;;;-7.10;99.90;;;;;;5069276;28;20215;-80
2022/12/18 02:46:36;;;;;;;0.10;0.10;;;-7.20;99.90;;;;;;5053817;28;20310;-80
2022/12/18 02:49:32;;;;;;;0.10;0.10;;;-7.20;99.90;;;;;;5052330;28;20275;-80
2022/12/18 02:52:16;;;;;;;0.10;0.10;;;-7.00;99.90;;;;;;5070477;28;20183;-80
2022/12/18 02:55:07;;;;;;;0.10;0.10;;;-6.90;99.90;;;;;;5069131;28;20187;-83
2022/12/18 02:57:56;;;;;;;0.37;0.37;;;-6.80;99.90;;;;;;5053220;28;20192;-79
2022/12/18 03:00:28;;;;;;;0.10;0.10;;;-6.70;99.90;;;;;;5052189;28;20252;-80
2022/12/18 03:03:03;;;;;;;0.10;0.10;;;-6.60;99.90;;;;;;5052266;28;21015;-80
2022/12/18 03:05:40;;;;;;;0.10;0.10;;;-6.60;99.90;;;;;;5068367;28;20228;-79
2022/12/18 03:08:10;;;;;;;0.10;0.10;;;-6.70;99.90;;;;;;5053614;28;20212;-80
2022/12/18 03:10:42;;;;;;;0.10;0.10;;;-7.10;99.90;;;;;;5068856;28;20174;-80
2022/12/18 03:13:12;;;;;;;0.10;0.10;;;-7.00;99.90;;;;;;5070249;28;20185;-80
2022/12/18 03:15:45;;;;;;;0.10;0.10;;;-6.90;99.90;;;;;;5069668;28;20189;-80
2022/12/18 03:18:27;;;;;;;0.10;0.10;;;-6.80;99.90;;;;;;5053705;28;20737;-79
2022/12/18 03:20:56;;;;;;;0.10;0.10;;;-6.90;99.90;;;;;;5052883;28;20213;-80
2022/12/18 03:23:27;;;;;;;0.10;0.10;;;-6.80;99.90;;;;;;5051812;28;20201;-80
2022/12/18 03:25:57;;;;;;;0.10;0.10;;;-6.80;99.90;;;;;;5054854;28;20568;-79
2022/12/18 03:28:23;;;;;;;0.10;0.10;;;-6.80;99.90;;;;;;5050446;28;20198;-79
2022/12/18 03:30:55;;;;;;;0.10;0.10;;;-6.80;99.90;;;;;;5051205;28;20705;-79
2022/12/18 03:33:29;;;;;;;0.10;0.10;;;-6.90;99.90;;;;;;5053725;28;20190;-79
2022/12/18 03:35:55;;;;;;;0.10;0.10;;;-7.00;99.90;;;;;;5052858;28;20279;-80
2022/12/18 03:38:21;;;;;;;0.10;0.10;;;-6.90;99.90;;;;;;5052240;28;20576;-80
2022/12/18 03:40:59;;;;;;;0.10;0.10;;;-6.80;99.90;;;;;;5069975;28;20183;-80
2022/12/18 03:43:40;;;;;;;0.10;0.10;;;-6.70;99.90;;;;;;5053188;28;20210;-79
2022/12/18 03:46:23;;;;;;;0.10;0.10;;;-6.60;99.90;;;;;;5071360;28;20178;-79
2022/12/18 03:48:54;;;;;;;0.10;0.10;;;-6.60;99.90;;;;;;5052531;28;20201;-80
2022/12/18 03:51:26;;;;;;;0.10;0.10;;;-6.60;99.90;;;;;;5068546;28;20558;-79
2022/12/18 03:54:00;;;;;;;0.10;0.10;;;-6.50;99.90;;;;;;5053080;28;20193;-80
2022/12/18 03:56:30;;;;;;;0.10;0.10;;;-6.60;99.90;;;;;;5055830;28;20185;-80
2022/12/18 03:58:59;;;;;;;0.10;0.10;;;-6.60;99.90;;;;;;5070492;28;20223;-80
2022/12/18 04:01:37;;;;;;;0.10;0.10;;;-6.60;99.90;;;;;;5054832;28;20182;-80
2022/12/18 04:04:05;;;;;;;0.10;0.10;;;-6.60;99.90;;;;;;5068381;28;20196;-79
2022/12/18 04:06:35;;;;;;;0.10;0.10;;;-6.80;99.90;;;;;;5053916;28;20177;-79
2022/12/18 04:09:01;;;;;;;0.10;0.10;;;-6.90;99.90;;;;;;5054016;28;20275;-80
2022/12/18 04:11:26;;;;;;;0.10;0.10;;;-6.80;99.90;;;;;;5069531;28;20182;-80
2022/12/18 04:13:57;;;;;;;0.10;0.10;;;-6.90;99.90;;;;;;5053199;28;20184;-79
2022/12/18 04:16:23;;;;;;;0.10;0.10;;;-6.90;99.90;;;;;;5069354;28;20171;-80
2022/12/18 04:18:49;;;;;;;0.10;0.10;;;-6.80;99.90;;;;;;5054055;28;20203;-79
2022/12/18 04:21:14;;;;;;;0.10;0.10;;;-6.70;99.90;;;;;;5068770;28;20759;-80
2022/12/18 04:23:40;;;;;;;0.10;0.10;;;-6.70;99.90;;;;;;5053315;28;20198;-80
2022/12/18 04:26:05;;;;;;;0.10;0.10;;;-6.60;99.90;;;;;;5068007;28;20743;-79
2022/12/18 04:28:31;;;;;;;0.10;0.10;;;-6.50;99.90;;;;;;5068853;28;20292;-79
2022/12/18 04:30:56;;;;;;;0.10;0.10;;;-6.40;99.90;;;;;;5067004;28;20188;-79
2022/12/18 04:33:22;;;;;;;0.10;0.10;;;-6.40;99.90;;;;;;5068098;28;20185;-80
2022/12/18 04:35:47;;;;;;;0.10;0.10;;;-6.40;99.90;;;;;;5066603;28;20712;-79
2022/12/18 04:38:13;;;;;;;0.10;0.10;;;-6.30;99.90;;;;;;5068424;28;20246;-79
2022/12/18 04:40:39;;;;;;;0.10;0.10;;;-6.40;99.90;;;;;;5067859;28;20193;-80
2022/12/18 04:43:05;;;;;;;0.10;0.10;;;-6.40;99.90;;;;;;5067981;28;20316;-78
2022/12/18 04:45:31;;;;;;;0.10;0.10;;;-6.50;99.90;;;;;;5068808;28;20229;-80
2022/12/18 04:48:01;;;;;;;0.10;0.10;;;-6.50;99.90;;;;;;5066729;28;20186;-80
2022/12/18 04:50:27;;;;;;;0.10;0.10;;;-6.50;99.90;;;;;;5067581;28;20193;-80
2022/12/18 04:52:52;;;;;;;0.10;0.10;;;-6.40;99.90;;;;;;5068191;28;20256;-79
2022/12/18 04:55:18;;;;;;;0.10;0.10;;;-6.40;99.90;;;;;;5059645;28;20647;-80
2022/12/18 04:57:44;;;;;;;0.10;0.10;;;-6.30;99.90;;;;;;5052820;28;20206;-79
2022/12/18 05:00:10;;;;;;;0.10;0.10;;;-6.30;99.90;;;;;;5067413;28;20206;-79
2022/12/18 05:02:36;;;;;;;0.10;0.10;;;-6.30;99.90;;;;;;5051322;28;20217;-79
2022/12/18 05:05:01;;;;;;;0.10;0.10;;;-6.30;99.90;;;;;;5057106;28;20243;-79
2022/12/18 05:07:27;;;;;;;0.10;0.10;;;-6.30;99.90;;;;;;5072168;28;20182;-80
2022/12/18 05:09:52;;;;;;;0.10;0.10;;;-6.20;99.90;;;;;;5075882;28;20259;-79
2022/12/18 05:12:18;;;;;;;0.10;0.10;;;-6.20;99.90;;;;;;5074036;28;20196;-79
2022/12/18 05:14:43;;;;;;;0.10;0.10;;;-6.20;99.90;;;;;;5074237;28;20194;-79
2022/12/18 05:17:09;;;;;;;0.10;0.10;;;-6.10;99.90;;;;;;5073893;28;20191;-81
2022/12/18 05:19:34;;;;;;;0.10;0.10;;;-6.10;99.90;;;;;;5074109;28;20244;-80
2022/12/18 05:22:01;;;;;;;0.10;0.10;;;-6.00;99.90;;;;;;5074040;28;20628;-79
2022/12/18 05:24:26;;;;;;;0.10;0.10;;;-6.10;99.90;;;;;;5059738;28;20207;-78
2022/12/18 05:26:52;;;;;;;0.10;0.10;;;-6.00;99.90;;;;;;5073331;28;20180;-80
2022/12/18 05:29:17;;;;;;;0.10;0.10;;;-6.00;99.90;;;;;;5076133;28;20695;-80
2022/12/18 05:31:43;;;;;;;0.10;0.10;;;-6.00;99.90;;;;;;5055719;28;20186;-80
2022/12/18 05:34:08;;;;;;;0.10;0.10;;;-6.00;99.90;;;;;;5076042;28;20685;-80
2022/12/18 05:36:34;;;;;;;0.10;0.10;;;-5.90;99.90;;;;;;5072525;28;20683;-79
2022/12/18 05:39:00;;;;;;;0.10;0.10;;;-5.90;99.90;;;;;;5060019;28;20205;-79
2022/12/18 05:41:26;;;;;;;0.10;0.10;;;-6.00;99.90;;;;;;5057580;28;20182;-80
2022/12/18 05:43:51;;;;;;;0.10;0.10;;;-6.10;99.90;;;;;;5058729;28;20208;-80
2022/12/18 05:46:17;;;;;;;0.10;0.10;;;-6.10;99.90;;;;;;5074341;28;20191;-79
2022/12/18 05:48:44;;;;;;;0.10;0.10;;;-6.10;99.90;;;;;;5071418;28;20306;-80
2022/12/18 05:51:12;;;;;;;0.10;0.10;;;-6.00;99.90;;;;;;5074063;28;20185;-79
2022/12/18 05:53:38;;;;;;;0.10;0.10;;;-6.00;99.90;;;;;;5057730;28;20180;-79
2022/12/18 05:56:06;;;;;;;0.10;0.10;;;-5.90;99.90;;;;;;5059436;28;20187;-80
2022/12/18 05:58:32;;;;;;;0.10;0.10;;;-6.10;99.90;;;;;;5058993;28;20698;-80
2022/12/18 06:01:05;;;;;;;0.10;0.10;;;-6.10;99.90;;;;;;5074011;28;20240;-79
2022/12/18 06:03:31;;;;;;;0.10;0.10;;;-6.00;99.90;;;;;;5074028;28;20207;-79
2022/12/18 06:05:56;;;;;;;0.10;0.10;;;-5.90;99.90;;;;;;5059589;28;20183;-80
2022/12/18 06:08:22;;;;;;;0.10;0.10;;;-5.90;99.90;;;;;;5075909;28;20248;-80
2022/12/18 06:10:52;;;;;;;0.10;0.10;;;-5.90;99.90;;;;;;5074865;28;20185;-80
2022/12/18 06:13:18;;;;;;;0.10;0.10;;;-5.90;99.90;;;;;;5060052;28;20186;-80
2022/12/18 06:15:44;;;;;;;0.10;0.10;;;-5.90;99.90;;;;;;5059421;28;20193;-80
2022/12/18 06:18:10;;;;;;;0.10;0.10;;;-5.90;99.90;;;;;;5054943;28;20212;-80
2022/12/18 06:20:36;;;;;;;0.10;0.10;;;-5.90;99.90;;;;;;5071836;28;20186;-80
2022/12/18 06:23:03;;;;;;;0.00;0.00;;;-5.90;99.90;;;;;;5073047;28;20212;-80
2022/12/18 06:25:28;;;;;;;0.10;0.10;;;-5.90;99.90;;;;;;5054201;28;20653;-79
2022/12/18 06:27:54;;;;;;;0.10;0.10;;;-5.90;99.90;;;;;;5054957;28;20262;-79
2022/12/18 06:30:20;;;;;;;0.10;0.10;;;-6.00;99.90;;;;;;5070783;28;20182;-79
2022/12/18 06:32:45;;;;;;;0.10;0.10;;;-6.20;99.90;;;;;;5053094;28;20177;-79
2022/12/18 06:35:11;;;;;;;0.10;0.10;;;-6.30;99.90;;;;;;5069672;28;20188;-78
2022/12/18 06:37:36;;;;;;;0.10;0.10;;;-6.20;99.90;;;;;;5053412;28;20324;-80
2022/12/18 06:40:02;;;;;;;0.10;0.10;;;-6.10;99.90;;;;;;5070595;28;20218;-80
2022/12/18 06:42:29;;;;;;;0.10;0.10;;;-6.10;99.90;;;;;;5070958;28;20213;-81
2022/12/18 06:44:54;;;;;;;0.10;0.10;;;-6.10;99.90;;;;;;5054532;28;20569;-80
2022/12/18 06:47:20;;;;;;;0.10;0.10;;;-6.10;99.90;;;;;;5053885;28;20182;-80
2022/12/18 06:49:45;;;;;;;0.10;0.10;;;-6.00;99.90;;;;;;5066933;28;20210;-80
2022/12/18 06:52:11;;;;;;;0.10;0.10;;;-6.10;99.90;;;;;;5068063;28;20197;-80
2022/12/18 06:54:36;;;;;;;0.10;0.10;;;-6.10;99.90;;;;;;5068463;28;20191;-83
2022/12/18 06:57:02;;;;;;;0.10;0.10;;;-6.10;99.90;;;;;;5060119;28;20227;-79
2022/12/18 06:59:27;;;;;;;0.10;0.10;;;-6.10;99.90;;;;;;5062625;28;20214;-80
2022/12/18 07:01:53;;;;;;;0.10;0.10;;;-6.10;99.90;;;;;;5068546;28;20192;-79
2022/12/18 07:04:19;;;;;;;0.10;0.10;;;-6.00;99.90;;;;;;5068089;28;20777;-82
2022/12/18 07:06:44;;;;;;;0.10;0.10;;;-5.90;99.90;;;;;;5057363;28;20186;-82
2022/12/18 07:09:10;;;;;;;0.10;0.10;;;-5.90;99.90;;;;;;5073272;28;20205;-82
2022/12/18 07:11:35;;;;;;;0.10;0.10;;;-5.90;99.90;;;;;;5058366;28;20214;-82
2022/12/18 07:14:01;;;;;;;0.10;0.10;;;-5.80;99.90;;;;;;5072326;28;20587;-81
2022/12/18 07:16:28;;;;;;;0.10;0.10;;;-5.90;99.90;;;;;;5053290;28;20226;-82
2022/12/18 07:18:55;;;;;;;0.10;0.10;;;-5.80;99.90;;;;;;5056137;28;20211;-83
2022/12/18 07:21:22;;;;;;;0.10;0.10;;;-5.90;99.90;;;;;;5057983;28;20208;-81
2022/12/18 07:23:50;;;;;;;0.10;0.10;;;-6.10;99.90;;;;;;5053946;28;20687;-82
2022/12/18 07:26:18;;;;;;;0.10;0.10;;;-6.30;99.90;;;;;;5052157;28;20188;-82
2022/12/18 07:28:44;;;;;;;0.10;0.10;;;-6.50;99.90;;;;;;5070828;28;20213;-82
2022/12/18 07:31:12;;;;;;;0.10;0.10;;;-6.70;99.90;;;;;;5056328;28;20185;-82
2022/12/18 07:33:38;;;;;;;0.10;0.10;;;-6.90;99.90;;;;;;5074196;28;20193;-82
2022/12/18 07:36:06;;;;;;;0.63;0.60;;;-7.00;99.90;;;;;;5075411;28;20196;-82
2022/12/18 07:38:33;;;;;;;0.10;0.10;;;-7.10;99.90;;;;;;5056568;28;20209;-81
2022/12/18 07:41:07;;;;;;;0.10;0.10;;;-7.10;99.90;;;;;;5056847;28;21082;-81
2022/12/18 07:43:33;;;;;;;0.10;0.10;;;-7.00;99.90;;;;;;5072678;28;20208;-82
2022/12/18 07:46:00;;;;;;;0.10;0.10;;;-7.00;99.90;;;;;;5058589;28;20177;-82
2022/12/18 07:48:26;;;;;;;0.10;0.10;;;-6.90;99.90;;;;;;5073977;28;20330;-81
2022/12/18 07:50:51;;;;;;;0.10;0.10;;;-6.80;99.90;;;;;;5057258;28;20611;-82
2022/12/18 07:53:17;;;;;;;0.10;0.10;;;-6.70;99.90;;;;;;5072950;28;20263;-82
2022/12/18 07:55:45;;;;;;;0.10;0.10;;;-6.60;99.90;;;;;;5073375;28;20196;-81
2022/12/18 07:58:11;;;;;;;0.10;0.10;;;-6.40;99.90;;;;;;5060519;28;20213;-82
2022/12/18 08:00:37;;;;;;;0.10;0.10;;;-6.20;99.90;;;;;;5075634;28;20190;-81
2022/12/18 08:03:02;;;;;;;0.10;0.10;;;-6.10;99.90;;;;;;5078295;28;20177;-81
2022/12/18 08:05:28;;;;;;;0.70;0.63;;;-6.00;99.90;;;;;;5074630;28;20224;-83
2022/12/18 08:07:54;;;;;;;0.10;0.10;;;-6.00;99.90;;;;;;5056568;28;20259;-79
2022/12/18 08:10:20;;;;;;;0.10;0.10;;;-5.90;99.90;;;;;;5070858;28;20203;-78
2022/12/18 08:12:49;;;;;;;0.10;0.10;;;-5.90;99.90;;;;;;5054398;28;20185;-79
2022/12/18 08:15:15;;;;;;;0.10;0.10;;;-5.90;99.90;;;;;;5068637;28;20188;-79
2022/12/18 08:17:41;;;;;;;0.10;0.10;;;-5.90;99.90;;;;;;5050040;28;20648;-79
2022/12/18 08:20:07;;;;;;;0.10;0.10;;;-5.90;99.90;;;;;;5054465;28;20445;-81
2022/12/18 08:22:35;;;;;;;0.10;0.10;;;-5.90;99.90;;;;;;5058468;28;20249;-80
2022/12/18 08:25:01;;;;;;;0.10;0.10;;;-5.80;99.90;;;;;;5073528;28;20214;-80
2022/12/18 08:27:26;;;;;;;0.10;0.10;;;-5.80;99.90;;;;;;5077737;28;20181;-80
2022/12/18 08:29:52;;;;;;;0.10;0.10;;;-5.70;99.90;;;;;;5074120;28;20573;-80
2022/12/18 08:32:17;;;;;;;0.10;0.10;;;-5.60;99.90;;;;;;5057565;28;20170;-81
2022/12/18 08:34:43;;;;;;;0.10;0.10;;;-5.40;99.90;;;;;;5058693;28;20225;-82
2022/12/18 08:37:09;;;;;;;0.10;0.10;;;-5.40;99.90;;;;;;5069066;28;20852;-81
2022/12/18 08:39:35;;;;;;;0.10;0.10;;;-5.20;99.90;;;;;;5056651;28;20209;-81
2022/12/18 08:44:45;;;;;;;0.10;0.10;;;-4.90;99.90;;;;;;5054783;28;20305;-80
2022/12/18 08:47:10;;;;;;;0.10;0.10;;;-4.80;99.90;;;;;;5073961;28;20249;-80
2022/12/18 08:49:36;;;;;;;0.10;0.10;;;-4.60;99.90;;;;;;5072038;28;20211;-80
2022/12/18 08:52:02;;;;;;;0.10;0.10;;;-4.40;99.90;;;;;;5075816;28;20211;-80
2022/12/18 08:54:28;;;;;;;0.10;0.10;;;-4.20;99.90;;;;;;5062507;28;20201;-81
2022/12/18 08:56:54;;;;;;;0.10;0.10;;;-4.10;99.90;;;;;;5079147;28;20215;-81
2022/12/18 08:59:23;;;;;;;0.10;0.10;;;-3.90;99.90;;;;;;5078063;28;20237;-80
2022/12/18 09:01:49;;;;;;;0.10;0.10;;;-3.80;99.90;;;;;;5060236;28;20218;-81
2022/12/18 09:04:15;;;;;;;0.10;0.10;;;-3.80;99.90;;;;;;5061221;28;20202;-80
2022/12/18 09:06:41;;;;;;;0.07;0.07;;;-3.80;99.90;;;;;;5059370;28;20665;-82
2022/12/18 09:09:07;;;;;;;0.10;0.10;;;-3.70;99.90;;;;;;5075692;28;20270;-81
2022/12/18 09:11:33;;;;;;;0.10;0.10;;;-3.60;99.90;;;;;;5059303;28;20182;-81
2022/12/18 09:14:00;;;;;;;0.10;0.10;;;-3.70;99.90;;;;;;5063812;28;20189;-82
2022/12/18 09:16:27;;;;;;;0.10;0.10;;;-4.50;99.90;;;;;;5061491;28;20676;-81
2022/12/18 09:18:59;;;;;;;0.10;0.10;;;-4.30;99.90;;;;;;5058436;28;20208;-81
2022/12/18 09:21:26;;;;;;;0.10;0.10;;;-4.10;99.90;;;;;;5073799;28;20275;-80
2022/12/18 09:23:54;;;;;;;0.10;0.10;;;-4.00;99.90;;;;;;5071132;28;20212;-81
2022/12/18 09:26:23;;;;;;;0.10;0.10;;;-3.60;99.90;;;;;;5059745;28;20185;-81
2022/12/18 09:28:50;;;;;;;0.10;0.10;;;-3.40;99.90;;;;;;5072786;28;20201;-81
2022/12/18 09:31:17;;;;;;;0.10;0.10;;;-3.40;99.90;;;;;;5074647;28;20183;-79
2022/12/18 09:33:42;;;;;;;0.10;0.10;;;-3.40;99.90;;;;;;5058948;28;20189;-81
2022/12/18 09:36:11;;;;;;;0.10;0.10;;;-3.10;99.90;;;;;;5073665;28;20574;-81
2022/12/18 09:38:36;;;;;;;0.10;0.10;;;-2.70;99.90;;;;;;5054811;28;20228;-81
2022/12/18 09:41:28;;;;;;;0.10;0.10;;;-2.50;99.90;;;;;;5058432;28;20295;-81
2022/12/18 09:43:59;;;;;;;0.10;0.10;;;-2.40;99.90;;;;;;5074725;28;20218;-80
2022/12/18 09:46:42;;;;;;;0.20;0.20;;;-2.80;99.90;;;;;;5074964;28;20225;-81
2022/12/18 09:49:14;;;;;;;0.10;0.10;;;-2.70;99.90;;;;;;5071789;28;20213;-81
2022/12/18 09:52:01;;;;;;;0.10;0.10;;;-2.40;99.90;;;;;;5068810;28;20260;-79
2022/12/18 09:54:44;;;;;;;0.10;0.10;;;-2.40;99.90;;;;;;5074486;28;20249;-79
2022/12/18 09:57:17;;;;;;;0.10;0.10;;;-2.50;99.90;;;;;;5075185;28;20817;-81
2022/12/18 09:59:47;;;;;;;0.10;0.10;;;-2.60;99.90;;;;;;5074347;28;20221;-82
2022/12/18 10:02:19;;;;;;;0.10;0.10;;;-2.50;99.90;;;;;;5073792;28;20723;-83
2022/12/18 10:05:07;;;;;;;0.10;0.10;;;-2.90;99.90;;;;;;5057934;28;20273;-81
2022/12/18 10:07:39;;;;;;;0.10;0.10;;;-2.90;99.90;;;;;;5071631;28;20194;-81
2022/12/18 10:10:29;;;;;;;0.10;0.10;;;-3.00;99.90;;;;;;5073617;28;20237;-82
2022/12/18 10:12:57;;;;;;;0.30;0.30;;;-2.70;99.90;;;;;;5058361;28;20234;-83
2022/12/18 10:15:48;;;;;;;0.10;0.10;;;-3.30;99.90;;;;;;5073800;28;20667;-83
2022/12/18 10:18:48;;;;;;;0.10;0.10;;;-3.30;99.90;;;;;;5058559;28;20213;-81
2022/12/18 10:21:20;;;;;;;0.10;0.10;;;-2.60;99.90;;;;;;5060818;28;20188;-82
2022/12/18 10:23:48;;;;;;;0.10;0.10;;;-2.40;99.90;;;;;;5062142;28;20255;-80
2022/12/18 10:26:14;;;;;;;0.10;0.10;;;-2.20;99.90;;;;;;5077979;28;20177;-81
2022/12/18 10:28:41;;;;;;;0.10;0.10;;;-2.70;99.90;;;;;;5075632;28;20212;-82
2022/12/18 10:31:14;;;;;;;0.10;0.10;;;-2.60;99.90;;;;;;5060767;28;20237;-81
2022/12/18 10:33:41;;;;;;;0.10;0.10;;;-2.50;99.90;;;;;;5059127;28;20262;-82
2022/12/18 10:36:06;;;;;;;0.10;0.10;;;-2.40;99.90;;;;;;5073960;28;20193;-82
2022/12/18 10:38:32;;;;;;;0.10;0.10;;;-2.50;99.90;;;;;;5074082;28;20221;-83
2022/12/18 10:41:18;;;;;;;0.87;0.87;;;-2.70;99.90;;;;;;5072243;28;20279;-82
2022/12/18 10:43:44;;;;;;;0.10;0.10;;;-2.80;99.90;;;;;;5075548;28;20206;-82
2022/12/18 10:46:10;;;;;;;0.10;0.10;;;-2.50;99.90;;;;;;5075436;28;20182;-81
2022/12/18 10:48:48;;;;;;;0.10;0.10;;;-2.80;99.90;;;;;;5074393;28;20212;-81
2022/12/18 10:51:30;;;;;;;0.10;0.10;;;-2.40;99.90;;;;;;5057140;28;20186;-80
2022/12/18 10:54:17;;;;;;;0.10;0.10;;;-2.30;99.90;;;;;;5073413;28;20270;-80
2022/12/18 10:56:43;;;;;;;0.10;0.10;;;-2.10;99.90;;;;;;5073065;28;20195;-80
2022/12/18 10:59:11;;;;;;;0.10;0.10;;;-2.50;99.90;;;;;;5073141;28;20205;-80
2022/12/18 11:01:52;;;;;;;0.10;0.10;;;-2.40;99.90;;;;;;5068781;28;20703;-78
2022/12/18 11:04:21;;;;;;;0.10;0.10;;;-2.20;99.90;;;;;;5055671;28;20259;-79
2022/12/18 11:07:02;;;;;;;0.10;0.10;;;-2.50;99.90;;;;;;5052730;28;20235;-80
2022/12/18 11:09:40;;;;;;;0.10;0.10;;;-3.00;99.90;;;;;;5054305;28;20200;-79
2022/12/18 11:12:18;;;;;;;0.20;0.20;;;-2.90;99.90;;;;;;5050358;28;20194;-80
2022/12/18 11:14:54;;;;;;;0.97;0.97;;;-2.80;99.90;;;;;;5071989;28;20237;-80
2022/12/18 11:17:28;;;;;;;0.10;0.10;;;-2.50;99.90;;;;;;5057394;28;20174;-80
2022/12/18 11:19:57;;;;;;;0.10;0.10;;;-2.30;99.90;;;;;;5056271;28;20202;-80
2022/12/18 11:22:32;;;;;;;0.10;0.10;;;-2.10;99.90;;;;;;5070683;28;20180;-79
2022/12/18 11:24:59;;;;;;;0.10;0.10;;;-2.00;99.90;;;;;;5067363;28;20218;-80
2022/12/18 11:27:25;;;;;;;0.10;0.10;;;-2.20;99.90;;;;;;5072078;28;20623;-80
2022/12/18 11:29:51;;;;;;;0.10;0.10;;;-2.40;99.90;;;;;;5051626;28;20207;-80
2022/12/18 11:32:35;;;;;;;0.10;0.10;;;-2.50;99.90;;;;;;5071792;28;20183;-80
2022/12/18 11:35:39;;;;;;;0.10;0.10;;;-2.10;99.90;;;;;;5066537;28;20227;-79
2022/12/18 11:38:26;;;;;;;0.10;0.10;;;-2.70;99.90;;;;;;5056008;28;20200;-80
2022/12/18 11:41:03;;;;;;;0.10;0.10;;;-2.80;99.90;;;;;;5054335;28;20267;-79
2022/12/18 11:43:42;;;;;;;0.10;0.10;;;-2.80;99.90;;;;;;5052201;28;20209;-80
2022/12/18 11:46:14;;;;;;;0.10;0.10;;;-2.40;99.90;;;;;;5052968;28;20278;-80
2022/12/18 11:48:56;;;;;;;0.10;0.10;;;-2.50;99.90;;;;;;5070357;28;20229;-79
2022/12/18 11:52:03;;;;;;;0.10;0.10;;;-2.70;99.90;;;;;;5053697;28;20196;-78
2022/12/18 11:54:28;;;;;;;0.10;0.10;;;-2.40;99.90;;;;;;5052776;28;20518;-80
2022/12/18 11:57:06;;;;;;;0.10;0.10;;;-2.80;99.90;;;;;;5062383;28;20268;-80
2022/12/18 12:00:01;;;;;;;0.10;0.10;;;-2.60;99.90;;;;;;5069743;28;20232;-79
2022/12/18 12:03:01;;;;;;;0.10;0.10;;;-2.60;99.90;;;;;;5041564;28;20281;-80
2022/12/18 12:05:45;;;;;;;0.10;0.10;;;-2.70;99.90;;;;;;5070511;28;20186;-82
2022/12/18 12:08:29;;;;;;;0.10;0.10;;;-2.90;99.90;;;;;;5074209;28;20181;-82
2022/12/18 12:11:43;;;;;;;0.10;0.10;;;-2.70;99.90;;;;;;5074079;28;20192;-83
2022/12/18 12:14:18;;;;;;;0.10;0.10;;;-2.30;99.90;;;;;;5057649;28;20212;-82
2022/12/18 12:16:49;;;;;;;0.10;0.10;;;-2.40;99.90;;;;;;5074766;28;20180;-82
2022/12/18 12:19:27;;;;;;;0.10;0.10;;;-2.40;99.90;;;;;;5055644;28;20206;-81
2022/12/18 12:22:07;;;;;;;0.10;0.10;;;-2.30;99.90;;;;;;5059046;28;20184;-82
2022/12/18 12:24:51;;;;;;;0.10;0.10;;;-2.70;99.90;;;;;;5059067;28;20205;-82
2022/12/18 12:27:43;;;;;;;0.10;0.10;;;-2.30;99.90;;;;;;5074331;28;20200;-83
2022/12/18 12:30:18;;;;;;;0.10;0.10;;;-2.30;99.90;;;;;;5058444;28;20209;-81
2022/12/18 12:32:50;;;;;;;0.10;0.10;;;-2.30;99.90;;;;;;5075665;28;20180;-82
2022/12/18 12:35:25;;;;;;;0.10;0.10;;;-2.20;99.90;;;;;;5074757;28;20598;-82
2022/12/18 12:37:59;;;;;;;0.10;0.10;;;-2.30;99.90;;;;;;5061098;28;20175;-82
2022/12/18 12:40:27;;;;;;;0.10;0.10;;;-2.60;99.90;;;;;;5074900;28;20182;-82
2022/12/18 12:43:14;;;;;;;0.10;0.10;;;-2.60;99.90;;;;;;5076509;28;20181;-82
2022/12/18 12:45:48;;;;;;;0.10;0.10;;;-2.40;99.90;;;;;;5076697;28;20572;-82
2022/12/18 12:48:38;;;;;;;0.10;0.10;;;-2.20;99.90;;;;;;5074661;28;20214;-81
2022/12/18 12:51:37;;;;;;;0.10;0.10;;;-2.20;99.90;;;;;;5052419;28;20314;-80
2022/12/18 12:54:11;;;;;;;0.10;0.10;;;-2.00;99.90;;;;;;5045201;28;20201;-80
2022/12/18 12:56:50;;;;;;;0.10;0.10;;;-2.70;99.90;;;;;;5053545;28;20185;-80
2022/12/18 12:59:22;;;;;;;0.63;0.63;;;-3.00;99.90;;;;;;5073736;28;20208;-80
2022/12/18 13:02:17;;;;;;;0.10;0.10;;;-3.40;99.90;;;;;;5054956;28;20193;-80
2022/12/18 13:04:52;;;;;;;0.93;0.93;;;-3.50;99.90;;;;;;5071502;28;20703;-79
2022/12/18 13:07:24;;;;;;;0.83;0.83;;;-3.60;99.90;;;;;;5069849;28;20283;-80
2022/12/18 13:10:11;;;;;;;0.10;0.10;;;-3.40;99.90;;;;;;5053272;28;20201;-80
2022/12/18 13:12:56;;;;;;;0.10;0.10;;;-3.30;99.90;;;;;;5053867;28;20717;-80